SAS431 ESGG-EKCH
Flight info
| Callsign | SAS431 |
|---|---|
| Flight time | 0h 30m |
| Altitude | 19000 |
| Route | TOPLA L996 ERNOV |
| Aircraft | A320/M-SDE3FGHIRWY/LB1 |
Departure
| Time | 2026-05-06 15:28 |
|---|---|
| Airport | Göteborg Landvetter Airport (ESGG) |
Arrival
| Time | 2026-05-06 15:58 |
|---|---|
| Airport | Copenhagen Kastrup Airport (EKCH) |
| Time | Latitude | Longitude | Altitude | Speed | Heading |
|---|---|---|---|---|---|
| 2026-05-06 14:59 | 57.66728 | 12.29268 | 544 ft | 0 kts | 116° |
| 2026-05-06 15:13 | 57.66730 | 12.29260 | 516 ft | 4 kts | 116° |
| 2026-05-06 15:14 | 57.66742 | 12.29215 | 516 ft | 4 kts | 116° |
| 2026-05-06 15:14 | 57.66753 | 12.29169 | 516 ft | 4 kts | 111° |
| 2026-05-06 15:14 | 57.66762 | 12.29123 | 516 ft | 4 kts | 105° |
| 2026-05-06 15:14 | 57.66766 | 12.29098 | 516 ft | 0 kts | 99° |
| 2026-05-06 15:17 | 57.66765 | 12.29107 | 516 ft | 2 kts | 99° |
| 2026-05-06 15:18 | 57.66764 | 12.29120 | 516 ft | 0 kts | 98° |
| 2026-05-06 15:18 | 57.66763 | 12.29121 | 516 ft | 0 kts | 101° |
| 2026-05-06 15:18 | 57.66761 | 12.29123 | 516 ft | 0 kts | 128° |
| 2026-05-06 15:18 | 57.66757 | 12.29121 | 516 ft | 0 kts | 175° |
| 2026-05-06 15:19 | 57.66754 | 12.29112 | 516 ft | 2 kts | 224° |
| 2026-05-06 15:19 | 57.66749 | 12.29100 | 516 ft | 0 kts | 240° |
| 2026-05-06 15:19 | 57.66752 | 12.29092 | 516 ft | 1 kts | 292° |
| 2026-05-06 15:19 | 57.66776 | 12.29066 | 516 ft | 8 kts | 321° |
| 2026-05-06 15:20 | 57.66829 | 12.29001 | 516 ft | 10 kts | 355° |
| 2026-05-06 15:20 | 57.66890 | 12.29048 | 516 ft | 10 kts | 26° |
| 2026-05-06 15:20 | 57.66954 | 12.29105 | 516 ft | 11 kts | 25° |
| 2026-05-06 15:20 | 57.67023 | 12.29168 | 516 ft | 11 kts | 26° |
| 2026-05-06 15:21 | 57.67097 | 12.29236 | 516 ft | 12 kts | 25° |
| 2026-05-06 15:21 | 57.67175 | 12.29308 | 516 ft | 13 kts | 26° |
| 2026-05-06 15:21 | 57.67261 | 12.29384 | 516 ft | 14 kts | 25° |
| 2026-05-06 15:21 | 57.67353 | 12.29470 | 516 ft | 16 kts | 26° |
| 2026-05-06 15:22 | 57.67455 | 12.29563 | 516 ft | 17 kts | 26° |
| 2026-05-06 15:22 | 57.67529 | 12.29594 | 516 ft | 11 kts | 340° |
| 2026-05-06 15:22 | 57.67575 | 12.29473 | 516 ft | 13 kts | 297° |
| 2026-05-06 15:22 | 57.67591 | 12.29406 | 516 ft | 5 kts | 284° |
| 2026-05-06 15:23 | 57.67591 | 12.29390 | 516 ft | 0 kts | 275° |
| 2026-05-06 15:26 | 57.67592 | 12.29377 | 516 ft | 2 kts | 273° |
| 2026-05-06 15:26 | 57.67593 | 12.29331 | 516 ft | 5 kts | 272° |
| 2026-05-06 15:26 | 57.67586 | 12.29252 | 516 ft | 7 kts | 254° |
| 2026-05-06 15:26 | 57.67560 | 12.29156 | 516 ft | 10 kts | 231° |
| 2026-05-06 15:27 | 57.67402 | 12.28996 | 515 ft | 58 kts | 206° |
| 2026-05-06 15:27 | 57.66843 | 12.28490 | 513 ft | 117 kts | 206° |
| 2026-05-06 15:27 | 57.65970 | 12.27693 | 508 ft | 161 kts | 205° |
| 2026-05-06 15:27 | 57.64937 | 12.26721 | 1027 ft | 159 kts | 206° |
| 2026-05-06 15:28 | 57.63913 | 12.25909 | 1675 ft | 164 kts | 206° |
| 2026-05-06 15:28 | 57.62822 | 12.24940 | 1994 ft | 184 kts | 210° |
| 2026-05-06 15:28 | 57.61606 | 12.23809 | 2262 ft | 207 kts | 207° |
| 2026-05-06 15:28 | 57.60150 | 12.23015 | 2608 ft | 231 kts | 189° |
| 2026-05-06 15:29 | 57.58470 | 12.22675 | 3035 ft | 254 kts | 184° |
| 2026-05-06 15:29 | 57.56681 | 12.22487 | 3889 ft | 259 kts | 182° |
| 2026-05-06 15:29 | 57.54890 | 12.22614 | 4940 ft | 258 kts | 169° |
| 2026-05-06 15:29 | 57.53130 | 12.23222 | 6009 ft | 256 kts | 170° |
| 2026-05-06 15:30 | 57.51365 | 12.23757 | 6928 ft | 259 kts | 171° |
| 2026-05-06 15:30 | 57.49558 | 12.24264 | 7733 ft | 265 kts | 172° |
| 2026-05-06 15:30 | 57.47716 | 12.24760 | 8582 ft | 271 kts | 172° |
| 2026-05-06 15:30 | 57.45836 | 12.25262 | 9422 ft | 275 kts | 172° |
| 2026-05-06 15:31 | 57.43922 | 12.25773 | 10203 ft | 282 kts | 173° |
| 2026-05-06 15:31 | 57.41894 | 12.26314 | 10483 ft | 306 kts | 173° |
| 2026-05-06 15:31 | 57.39707 | 12.26898 | 10766 ft | 327 kts | 173° |
| 2026-05-06 15:32 | 57.35093 | 12.28131 | 12166 ft | 340 kts | 174° |
| 2026-05-06 15:32 | 57.32732 | 12.28766 | 12945 ft | 345 kts | 174° |
| 2026-05-06 15:32 | 57.30335 | 12.29415 | 13742 ft | 350 kts | 174° |
| 2026-05-06 15:32 | 57.27914 | 12.30067 | 14445 ft | 354 kts | 174° |
| 2026-05-06 15:33 | 57.25457 | 12.30727 | 15181 ft | 357 kts | 175° |
| 2026-05-06 15:33 | 57.22985 | 12.31389 | 15900 ft | 361 kts | 175° |
| 2026-05-06 15:33 | 57.20494 | 12.32055 | 16619 ft | 364 kts | 175° |
| 2026-05-06 15:33 | 57.17975 | 12.32724 | 17330 ft | 367 kts | 176° |
| 2026-05-06 15:34 | 57.15436 | 12.33395 | 18054 ft | 370 kts | 176° |
| 2026-05-06 15:34 | 57.12873 | 12.34072 | 18656 ft | 374 kts | 176° |
| 2026-05-06 15:34 | 57.10298 | 12.34737 | 18869 ft | 374 kts | 177° |
| 2026-05-06 15:34 | 57.07751 | 12.35377 | 18926 ft | 374 kts | 177° |
| 2026-05-06 15:35 | 57.05174 | 12.36013 | 18930 ft | 373 kts | 177° |
| 2026-05-06 15:35 | 57.02568 | 12.36650 | 18927 ft | 374 kts | 177° |
| 2026-05-06 15:35 | 56.99988 | 12.37282 | 18933 ft | 374 kts | 177° |
| 2026-05-06 15:35 | 56.97440 | 12.37910 | 18936 ft | 374 kts | 177° |
| 2026-05-06 15:36 | 56.94863 | 12.38542 | 18941 ft | 374 kts | 177° |
| 2026-05-06 15:36 | 56.92283 | 12.39172 | 18940 ft | 374 kts | 177° |
| 2026-05-06 15:36 | 56.89701 | 12.39806 | 18940 ft | 374 kts | 176° |
| 2026-05-06 15:36 | 56.87124 | 12.40446 | 18940 ft | 373 kts | 176° |
| 2026-05-06 15:37 | 56.84555 | 12.41083 | 18943 ft | 373 kts | 176° |
| 2026-05-06 15:37 | 56.81980 | 12.41715 | 18943 ft | 373 kts | 176° |
| 2026-05-06 15:37 | 56.79406 | 12.42341 | 18943 ft | 373 kts | 176° |
| 2026-05-06 15:37 | 56.76833 | 12.42965 | 18943 ft | 373 kts | 176° |
| 2026-05-06 15:38 | 56.74263 | 12.43591 | 18938 ft | 373 kts | 176° |
| 2026-05-06 15:38 | 56.71686 | 12.44224 | 18945 ft | 373 kts | 176° |
| 2026-05-06 15:38 | 56.69106 | 12.44861 | 18945 ft | 373 kts | 176° |
| 2026-05-06 15:38 | 56.66534 | 12.45491 | 18945 ft | 373 kts | 176° |
| 2026-05-06 15:39 | 56.63959 | 12.46117 | 18946 ft | 373 kts | 176° |
| 2026-05-06 15:39 | 56.61382 | 12.46743 | 18946 ft | 373 kts | 176° |
| 2026-05-06 15:39 | 56.58810 | 12.47366 | 18946 ft | 373 kts | 176° |
| 2026-05-06 15:39 | 56.56235 | 12.47985 | 18946 ft | 373 kts | 176° |
| 2026-05-06 15:40 | 56.53658 | 12.48607 | 18949 ft | 373 kts | 176° |
| 2026-05-06 15:40 | 56.51081 | 12.49230 | 18948 ft | 373 kts | 176° |
| 2026-05-06 15:40 | 56.48504 | 12.49851 | 18947 ft | 372 kts | 176° |
| 2026-05-06 15:40 | 56.45975 | 12.50463 | 18822 ft | 360 kts | 176° |
| 2026-05-06 15:41 | 56.43516 | 12.51058 | 18479 ft | 354 kts | 176° |
| 2026-05-06 15:41 | 56.41083 | 12.51641 | 18035 ft | 351 kts | 176° |
| 2026-05-06 15:41 | 56.38668 | 12.52213 | 17532 ft | 349 kts | 176° |
| 2026-05-06 15:41 | 56.36263 | 12.52783 | 17026 ft | 347 kts | 176° |
| 2026-05-06 15:42 | 56.33869 | 12.53353 | 16528 ft | 346 kts | 175° |
| 2026-05-06 15:42 | 56.31492 | 12.53919 | 16044 ft | 344 kts | 175° |
| 2026-05-06 15:42 | 56.29125 | 12.54482 | 15559 ft | 342 kts | 175° |
| 2026-05-06 15:42 | 56.26768 | 12.55036 | 15090 ft | 341 kts | 175° |
| 2026-05-06 15:43 | 56.24418 | 12.55587 | 14630 ft | 339 kts | 175° |
| 2026-05-06 15:43 | 56.22103 | 12.56134 | 14429 ft | 330 kts | 175° |
| 2026-05-06 15:43 | 56.19865 | 12.56670 | 14297 ft | 319 kts | 175° |
| 2026-05-06 15:43 | 56.17705 | 12.57187 | 14158 ft | 310 kts | 175° |
| 2026-05-06 15:44 | 56.15575 | 12.57403 | 13890 ft | 304 kts | 182° |
| 2026-05-06 15:44 | 56.13465 | 12.57420 | 13547 ft | 302 kts | 182° |
| 2026-05-06 15:44 | 56.11368 | 12.57438 | 13176 ft | 301 kts | 182° |
| 2026-05-06 15:44 | 56.09277 | 12.57456 | 12804 ft | 299 kts | 182° |
| 2026-05-06 15:45 | 56.07203 | 12.57472 | 12461 ft | 298 kts | 182° |
| 2026-05-06 15:45 | 56.05135 | 12.57490 | 12089 ft | 296 kts | 182° |
| 2026-05-06 15:45 | 56.03078 | 12.57512 | 11781 ft | 295 kts | 181° |
| 2026-05-06 15:45 | 56.01029 | 12.57531 | 11425 ft | 294 kts | 181° |
| 2026-05-06 15:46 | 55.98978 | 12.57549 | 11078 ft | 294 kts | 181° |
| 2026-05-06 15:46 | 55.96942 | 12.57570 | 10749 ft | 292 kts | 181° |
| 2026-05-06 15:46 | 55.94910 | 12.57593 | 10397 ft | 292 kts | 181° |
| 2026-05-06 15:46 | 55.92885 | 12.57615 | 10061 ft | 291 kts | 180° |
| 2026-05-06 15:47 | 55.90890 | 12.57637 | 9763 ft | 289 kts | 180° |
| 2026-05-06 15:47 | 55.88882 | 12.57659 | 9400 ft | 287 kts | 180° |
| 2026-05-06 15:47 | 55.86900 | 12.57381 | 9029 ft | 286 kts | 192° |
| 2026-05-06 15:47 | 55.85009 | 12.56310 | 8677 ft | 285 kts | 200° |
| 2026-05-06 15:48 | 55.83147 | 12.55090 | 8328 ft | 284 kts | 200° |
| 2026-05-06 15:48 | 55.81293 | 12.53881 | 7994 ft | 283 kts | 200° |
| 2026-05-06 15:48 | 55.79448 | 12.52679 | 7672 ft | 282 kts | 199° |
| 2026-05-06 15:48 | 55.77628 | 12.51504 | 7320 ft | 282 kts | 198° |
| 2026-05-06 15:49 | 55.75783 | 12.50316 | 7016 ft | 281 kts | 199° |
| 2026-05-06 15:49 | 55.73937 | 12.49130 | 6666 ft | 281 kts | 198° |
| 2026-05-06 15:49 | 55.72096 | 12.47950 | 6322 ft | 281 kts | 198° |
| 2026-05-06 15:49 | 55.70265 | 12.46773 | 6037 ft | 278 kts | 198° |
| 2026-05-06 15:50 | 55.68446 | 12.45603 | 5716 ft | 277 kts | 198° |
| 2026-05-06 15:50 | 55.66645 | 12.44445 | 5432 ft | 274 kts | 198° |
| 2026-05-06 15:50 | 55.64844 | 12.43290 | 5065 ft | 275 kts | 198° |
| 2026-05-06 15:50 | 55.63038 | 12.42134 | 4751 ft | 275 kts | 198° |
| 2026-05-06 15:51 | 55.61264 | 12.40995 | 4478 ft | 273 kts | 198° |
| 2026-05-06 15:51 | 55.59561 | 12.39402 | 4154 ft | 274 kts | 213° |
| 2026-05-06 15:51 | 55.58127 | 12.37254 | 3999 ft | 273 kts | 219° |
| 2026-05-06 15:51 | 55.56701 | 12.35045 | 3906 ft | 272 kts | 219° |
| 2026-05-06 15:52 | 55.55292 | 12.32884 | 3755 ft | 264 kts | 219° |
| 2026-05-06 15:52 | 55.53931 | 12.30803 | 3614 ft | 254 kts | 218° |
| 2026-05-06 15:52 | 55.52608 | 12.28816 | 3486 ft | 244 kts | 213° |
| 2026-05-06 15:52 | 55.51112 | 12.27730 | 3355 ft | 225 kts | 179° |
| 2026-05-06 15:53 | 55.49675 | 12.28227 | 3229 ft | 203 kts | 144° |
| 2026-05-06 15:53 | 55.48658 | 12.29830 | 2993 ft | 194 kts | 128° |
| 2026-05-06 15:53 | 55.47813 | 12.31677 | 2695 ft | 193 kts | 125° |
| 2026-05-06 15:53 | 55.47054 | 12.33583 | 2485 ft | 187 kts | 110° |
| 2026-05-06 15:54 | 55.46940 | 12.35800 | 2196 ft | 185 kts | 82° |
| 2026-05-06 15:54 | 55.47248 | 12.37994 | 2012 ft | 184 kts | 76° |
| 2026-05-06 15:54 | 55.47623 | 12.40168 | 2000 ft | 186 kts | 75° |
| 2026-05-06 15:54 | 55.48017 | 12.42347 | 2003 ft | 187 kts | 72° |
| 2026-05-06 15:55 | 55.48750 | 12.44265 | 2013 ft | 193 kts | 47° |
| 2026-05-06 15:55 | 55.49764 | 12.45826 | 2002 ft | 193 kts | 45° |
| 2026-05-06 15:55 | 55.50788 | 12.47383 | 1997 ft | 195 kts | 46° |
| 2026-05-06 15:55 | 55.51816 | 12.48955 | 1952 ft | 194 kts | 46° |
| 2026-05-06 15:56 | 55.52820 | 12.50495 | 1773 ft | 188 kts | 46° |
| 2026-05-06 15:56 | 55.53786 | 12.51977 | 1525 ft | 179 kts | 46° |
| 2026-05-06 15:56 | 55.54688 | 12.53361 | 1272 ft | 164 kts | 46° |
| 2026-05-06 15:56 | 55.55511 | 12.54628 | 1065 ft | 151 kts | 46° |
| 2026-05-06 15:57 | 55.56282 | 12.55818 | 842 ft | 146 kts | 47° |
| 2026-05-06 15:57 | 55.57033 | 12.56989 | 650 ft | 142 kts | 46° |
| 2026-05-06 15:57 | 55.57787 | 12.58152 | 415 ft | 144 kts | 45° |
| 2026-05-06 15:57 | 55.58548 | 12.59301 | 257 ft | 144 kts | 47° |
| 2026-05-06 15:58 | 55.59292 | 12.60462 | 57 ft | 143 kts | 45° |
| 2026-05-06 15:58 | 55.59960 | 12.61494 | 24 ft | 105 kts | 41° |
| 2026-05-06 15:58 | 55.60379 | 12.62143 | 23 ft | 55 kts | 41° |
| 2026-05-06 15:58 | 55.60590 | 12.62468 | 27 ft | 36 kts | 41° |
| 2026-05-06 15:59 | 55.60784 | 12.62750 | 26 ft | 36 kts | 33° |
| 2026-05-06 15:59 | 55.60947 | 12.62858 | 25 ft | 16 kts | 12° |
| 2026-05-06 15:59 | 55.61063 | 12.62900 | 24 ft | 18 kts | 12° |
| 2026-05-06 15:59 | 55.61145 | 12.62946 | 25 ft | 19 kts | 31° |
| 2026-05-06 16:00 | 55.61251 | 12.63112 | 26 ft | 21 kts | 42° |
| 2026-05-06 16:00 | 55.61369 | 12.63293 | 24 ft | 24 kts | 40° |
| 2026-05-06 16:00 | 55.61499 | 12.63494 | 24 ft | 26 kts | 41° |
| 2026-05-06 16:00 | 55.61640 | 12.63713 | 24 ft | 28 kts | 40° |
| 2026-05-06 16:01 | 55.61790 | 12.63944 | 24 ft | 30 kts | 41° |
| 2026-05-06 16:01 | 55.61896 | 12.64087 | 25 ft | 15 kts | 27° |
| 2026-05-06 16:01 | 55.62001 | 12.64177 | 24 ft | 18 kts | 25° |
| 2026-05-06 16:01 | 55.62123 | 12.64280 | 25 ft | 21 kts | 26° |
| 2026-05-06 16:02 | 55.62241 | 12.64379 | 22 ft | 8 kts | 24° |
| 2026-05-06 16:02 | 55.62294 | 12.64403 | 23 ft | 8 kts | 13° |
| 2026-05-06 16:02 | 55.62354 | 12.64429 | 23 ft | 10 kts | 15° |
| 2026-05-06 16:02 | 55.62425 | 12.64463 | 24 ft | 12 kts | 15° |
| 2026-05-06 16:03 | 55.62506 | 12.64456 | 25 ft | 13 kts | 315° |
| 2026-05-06 16:03 | 55.62559 | 12.64315 | 24 ft | 15 kts | 303° |
| 2026-05-06 16:03 | 55.62603 | 12.64254 | 25 ft | 6 kts | 24° |
| 2026-05-06 16:03 | 55.62647 | 12.64298 | 26 ft | 9 kts | 25° |
| 2026-05-06 16:04 | 55.62708 | 12.64342 | 26 ft | 6 kts | 25° |
| 2026-05-06 16:04 | 55.62721 | 12.64358 | 24 ft | 2 kts | 49° |
| 2026-05-06 16:04 | 55.62720 | 12.64393 | 24 ft | 4 kts | 96° |
| 2026-05-06 16:04 | 55.62715 | 12.64438 | 24 ft | 3 kts | 102° |
| 2026-05-06 16:05 | 55.62714 | 12.64453 | 24 ft | 1 kts | 102° |
| 2026-05-06 16:05 | 55.62713 | 12.64460 | 24 ft | 0 kts | 101° |